sensor_id;sensor_type;location;lat;lon;timestamp;pressure;altitude;pressure_sealevel;temperature;humidity
21547;BME280;41275;51.912;4.388;2023-05-16T00:04:27;102041.53;;;15.19;45.25
21547;BME280;41275;51.912;4.388;2023-05-16T00:09:48;102050.44;;;15.13;45.43
21547;BME280;41275;51.912;4.388;2023-05-16T00:15:10;102053.69;;;15.15;45.10
21547;BME280;41275;51.912;4.388;2023-05-16T00:20:32;102063.97;;;15.12;45.00
21547;BME280;41275;51.912;4.388;2023-05-16T00:25:54;102052.94;;;15.08;45.26
21547;BME280;41275;51.912;4.388;2023-05-16T00:31:16;102054.81;;;15.08;44.96
21547;BME280;41275;51.912;4.388;2023-05-16T00:36:37;102047.25;;;15.05;45.14
21547;BME280;41275;51.912;4.388;2023-05-16T00:41:58;102058.16;;;15.03;45.09
21547;BME280;41275;51.912;4.388;2023-05-16T00:47:19;102068.81;;;15.03;45.31
21547;BME280;41275;51.912;4.388;2023-05-16T00:52:40;102059.78;;;15.04;45.27
21547;BME280;41275;51.912;4.388;2023-05-16T00:58:04;102052.03;;;15.03;45.25
21547;BME280;41275;51.912;4.388;2023-05-16T01:03:25;102058.22;;;15.15;44.82
21547;BME280;41275;51.912;4.388;2023-05-16T01:08:47;102065.41;;;15.14;44.99
21547;BME280;41275;51.912;4.388;2023-05-16T01:14:19;102049.94;;;15.05;45.73
21547;BME280;41275;51.912;4.388;2023-05-16T01:20:02;102053.28;;;15.00;45.68
21547;BME280;41275;51.912;4.388;2023-05-16T01:25:53;102062.31;;;14.99;45.56
21547;BME280;41275;51.912;4.388;2023-05-16T01:31:16;102055.81;;;14.95;45.77
21547;BME280;41275;51.912;4.388;2023-05-16T01:36:49;102059.72;;;14.92;45.49
21547;BME280;41275;51.912;4.388;2023-05-16T01:42:14;102057.06;;;14.92;45.82
21547;BME280;41275;51.912;4.388;2023-05-16T01:47:40;102062.56;;;14.97;45.69
21547;BME280;41275;51.912;4.388;2023-05-16T01:53:07;102064.63;;;14.95;45.94
21547;BME280;41275;51.912;4.388;2023-05-16T01:58:32;102063.31;;;15.16;45.76
21547;BME280;41275;51.912;4.388;2023-05-16T02:03:54;102067.53;;;15.36;45.77
21547;BME280;41275;51.912;4.388;2023-05-16T02:09:15;102068.22;;;15.31;45.77
21547;BME280;41275;51.912;4.388;2023-05-16T02:14:37;102074.88;;;15.10;45.62
21547;BME280;41275;51.912;4.388;2023-05-16T02:19:58;102070.56;;;14.97;45.96
21547;BME280;41275;51.912;4.388;2023-05-16T02:25:26;102082.53;;;14.88;46.00
21547;BME280;41275;51.912;4.388;2023-05-16T02:30:58;102074.19;;;14.85;46.31
21547;BME280;41275;51.912;4.388;2023-05-16T02:36:19;102072.88;;;14.76;46.55
21547;BME280;41275;51.912;4.388;2023-05-16T02:41:41;102081.28;;;14.72;46.32
21547;BME280;41275;51.912;4.388;2023-05-16T02:47:02;102085.25;;;14.70;46.72
21547;BME280;41275;51.912;4.388;2023-05-16T02:52:23;102087.75;;;14.65;46.40
21547;BME280;41275;51.912;4.388;2023-05-16T02:57:45;102094.53;;;14.61;46.41
21547;BME280;41275;51.912;4.388;2023-05-16T03:03:06;102083.31;;;14.59;46.40
21547;BME280;41275;51.912;4.388;2023-05-16T03:08:27;102097.66;;;14.58;46.76
21547;BME280;41275;51.912;4.388;2023-05-16T03:13:48;102098.50;;;14.58;46.48
21547;BME280;41275;51.912;4.388;2023-05-16T03:19:09;102108.69;;;14.61;46.57
21547;BME280;41275;51.912;4.388;2023-05-16T03:24:31;102110.97;;;14.58;46.12
21547;BME280;41275;51.912;4.388;2023-05-16T03:29:52;102111.19;;;14.56;46.09
21547;BME280;41275;51.912;4.388;2023-05-16T03:35:13;102115.00;;;14.67;46.34
21547;BME280;41275;51.912;4.388;2023-05-16T03:40:34;102109.13;;;14.77;45.70
21547;BME280;41275;51.912;4.388;2023-05-16T03:45:55;102112.09;;;14.68;45.89
21547;BME280;41275;51.912;4.388;2023-05-16T03:51:17;102116.00;;;14.84;46.47
21547;BME280;41275;51.912;4.388;2023-05-16T03:56:38;102116.94;;;15.08;46.30
21547;BME280;41275;51.912;4.388;2023-05-16T04:01:59;102120.97;;;14.99;46.17
21547;BME280;41275;51.912;4.388;2023-05-16T04:07:20;102119.34;;;14.98;46.43
21547;BME280;41275;51.912;4.388;2023-05-16T04:12:41;102121.53;;;15.01;46.07
21547;BME280;41275;51.912;4.388;2023-05-16T04:18:04;102125.94;;;14.95;46.20
21547;BME280;41275;51.912;4.388;2023-05-16T04:23:25;102132.50;;;14.93;46.19
21547;BME280;41275;51.912;4.388;2023-05-16T04:28:46;102136.16;;;14.98;45.76
21547;BME280;41275;51.912;4.388;2023-05-16T04:34:08;102134.59;;;15.09;45.63
21547;BME280;41275;51.912;4.388;2023-05-16T04:39:29;102140.56;;;15.23;45.45
21547;BME280;41275;51.912;4.388;2023-05-16T04:44:50;102144.41;;;15.27;44.81
21547;BME280;41275;51.912;4.388;2023-05-16T04:50:11;102139.66;;;15.29;44.83
21547;BME280;41275;51.912;4.388;2023-05-16T04:55:32;102148.84;;;15.33;44.51
21547;BME280;41275;51.912;4.388;2023-05-16T05:00:54;102152.75;;;15.31;44.59
21547;BME280;41275;51.912;4.388;2023-05-16T05:06:15;102154.53;;;15.37;44.76
21547;BME280;41275;51.912;4.388;2023-05-16T05:11:36;102165.47;;;15.47;44.45
21547;BME280;41275;51.912;4.388;2023-05-16T05:16:58;102159.97;;;15.60;44.47
21547;BME280;41275;51.912;4.388;2023-05-16T05:22:19;102166.19;;;15.73;44.42
21547;BME280;41275;51.912;4.388;2023-05-16T05:27:42;102164.22;;;15.91;44.40
21547;BME280;41275;51.912;4.388;2023-05-16T05:33:03;102171.47;;;16.03;44.41
21547;BME280;41275;51.912;4.388;2023-05-16T05:38:24;102173.69;;;16.17;43.96
21547;BME280;41275;51.912;4.388;2023-05-16T05:43:45;102183.13;;;16.32;43.41
21547;BME280;41275;51.912;4.388;2023-05-16T05:49:07;102197.84;;;16.46;43.18
21547;BME280;41275;51.912;4.388;2023-05-16T05:54:28;102190.44;;;16.60;43.03
21547;BME280;41275;51.912;4.388;2023-05-16T05:59:50;102187.78;;;16.83;42.65
21547;BME280;41275;51.912;4.388;2023-05-16T06:05:11;102191.13;;;16.90;42.35
21547;BME280;41275;51.912;4.388;2023-05-16T06:10:32;102190.53;;;17.00;42.77
21547;BME280;41275;51.912;4.388;2023-05-16T06:15:53;102196.56;;;17.07;42.79
21547;BME280;41275;51.912;4.388;2023-05-16T06:21:15;102198.41;;;17.18;42.13
21547;BME280;41275;51.912;4.388;2023-05-16T06:26:36;102207.25;;;17.07;42.18
21547;BME280;41275;51.912;4.388;2023-05-16T06:31:57;102215.63;;;17.11;42.37
21547;BME280;41275;51.912;4.388;2023-05-16T06:37:18;102218.97;;;17.30;41.81
21547;BME280;41275;51.912;4.388;2023-05-16T06:42:39;102219.09;;;17.52;41.01
21547;BME280;41275;51.912;4.388;2023-05-16T06:48:01;102218.88;;;17.53;41.10
21547;BME280;41275;51.912;4.388;2023-05-16T06:53:22;102218.81;;;17.77;40.84
21547;BME280;41275;51.912;4.388;2023-05-16T06:58:43;102228.78;;;17.53;40.61
21547;BME280;41275;51.912;4.388;2023-05-16T07:04:04;102233.69;;;17.44;40.92
21547;BME280;41275;51.912;4.388;2023-05-16T07:09:26;102237.88;;;17.40;40.93
21547;BME280;41275;51.912;4.388;2023-05-16T07:14:47;102240.09;;;17.72;39.99
21547;BME280;41275;51.912;4.388;2023-05-16T07:20:08;102248.56;;;18.26;39.28
21547;BME280;41275;51.912;4.388;2023-05-16T07:25:33;102242.97;;;18.10;38.91
21547;BME280;41275;51.912;4.388;2023-05-16T07:30:54;102233.50;;;18.20;39.15
21547;BME280;41275;51.912;4.388;2023-05-16T07:36:18;102241.53;;;18.36;39.33
21547;BME280;41275;51.912;4.388;2023-05-16T07:41:39;102250.44;;;18.25;39.22
21547;BME280;41275;51.912;4.388;2023-05-16T07:47:01;102244.94;;;18.32;38.68
21547;BME280;41275;51.912;4.388;2023-05-16T07:52:22;102244.41;;;18.69;37.78
21547;BME280;41275;51.912;4.388;2023-05-16T07:57:43;102249.38;;;18.77;37.33
21547;BME280;41275;51.912;4.388;2023-05-16T08:03:04;102249.94;;;18.96;36.87
21547;BME280;41275;51.912;4.388;2023-05-16T08:08:26;102269.03;;;18.99;36.82
21547;BME280;41275;51.912;4.388;2023-05-16T08:13:48;102257.00;;;19.46;36.64
21547;BME280;41275;51.912;4.388;2023-05-16T08:19:09;102256.84;;;20.06;35.40
21547;BME280;41275;51.912;4.388;2023-05-16T08:24:31;102260.44;;;19.90;35.49
21547;BME280;41275;51.912;4.388;2023-05-16T08:29:52;102269.06;;;19.65;36.03
21547;BME280;41275;51.912;4.388;2023-05-16T08:35:13;102267.03;;;19.77;35.56
21547;BME280;41275;51.912;4.388;2023-05-16T08:40:34;102278.91;;;20.08;35.42
21547;BME280;41275;51.912;4.388;2023-05-16T08:45:55;102277.41;;;19.96;35.28
21547;BME280;41275;51.912;4.388;2023-05-16T08:51:18;102282.72;;;19.64;35.15
21547;BME280;41275;51.912;4.388;2023-05-16T08:56:41;102267.59;;;19.79;35.19
21547;BME280;41275;51.912;4.388;2023-05-16T09:02:03;102267.75;;;20.59;34.66
21547;BME280;41275;51.912;4.388;2023-05-16T09:07:25;102270.78;;;20.35;34.72
21547;BME280;41275;51.912;4.388;2023-05-16T09:12:46;102272.19;;;20.75;33.55
21547;BME280;41275;51.912;4.388;2023-05-16T09:18:11;102295.69;;;20.90;33.82
21547;BME280;41275;51.912;4.388;2023-05-16T09:23:34;102287.03;;;20.83;33.77
21547;BME280;41275;51.912;4.388;2023-05-16T09:28:55;102274.41;;;20.89;34.05
21547;BME280;41275;51.912;4.388;2023-05-16T09:34:21;102293.19;;;20.78;33.80
21547;BME280;41275;51.912;4.388;2023-05-16T09:39:47;102293.72;;;20.75;33.67
21547;BME280;41275;51.912;4.388;2023-05-16T09:45:12;102283.84;;;20.22;34.12
21547;BME280;41275;51.912;4.388;2023-05-16T09:50:35;102287.84;;;20.19;34.31
21547;BME280;41275;51.912;4.388;2023-05-16T09:56:14;102282.09;;;20.70;33.65
21547;BME280;41275;51.912;4.388;2023-05-16T10:01:35;102281.84;;;21.19;32.87
21547;BME280;41275;51.912;4.388;2023-05-16T10:07:03;102285.53;;;21.02;32.94
21547;BME280;41275;51.912;4.388;2023-05-16T10:12:28;102290.75;;;20.77;33.22
21547;BME280;41275;51.912;4.388;2023-05-16T10:17:50;102292.03;;;21.12;33.09
21547;BME280;41275;51.912;4.388;2023-05-16T10:23:16;102292.06;;;21.22;32.71
21547;BME280;41275;51.912;4.388;2023-05-16T10:28:39;102289.38;;;21.22;32.94
21547;BME280;41275;51.912;4.388;2023-05-16T10:34:00;102291.41;;;20.94;32.89
21547;BME280;41275;51.912;4.388;2023-05-16T10:39:22;102285.78;;;20.96;33.32
21547;BME280;41275;51.912;4.388;2023-05-16T10:44:47;102279.28;;;21.44;32.86
21547;BME280;41275;51.912;4.388;2023-05-16T10:50:08;102295.22;;;21.56;32.18
21547;BME280;41275;51.912;4.388;2023-05-16T10:55:29;102275.41;;;21.25;33.00
21547;BME280;41275;51.912;4.388;2023-05-16T11:01:16;102282.06;;;21.07;32.59
21547;BME280;41275;51.912;4.388;2023-05-16T11:12:02;102276.78;;;21.27;32.35
21547;BME280;41275;51.912;4.388;2023-05-16T11:17:24;102283.94;;;21.06;31.50
21547;BME280;41275;51.912;4.388;2023-05-16T11:22:47;102287.13;;;21.46;31.40
21547;BME280;41275;51.912;4.388;2023-05-16T11:28:09;102278.81;;;21.58;31.05
21547;BME280;41275;51.912;4.388;2023-05-16T11:33:32;102284.53;;;21.81;30.83
21547;BME280;41275;51.912;4.388;2023-05-16T11:39:05;102296.63;;;21.79;30.57
21547;BME280;41275;51.912;4.388;2023-05-16T11:44:26;102283.69;;;21.66;30.49
21547;BME280;41275;51.912;4.388;2023-05-16T11:49:47;102293.38;;;21.77;30.97
21547;BME280;41275;51.912;4.388;2023-05-16T11:55:09;102297.97;;;21.66;31.34
21547;BME280;41275;51.912;4.388;2023-05-16T12:00:31;102298.41;;;21.48;31.35
21547;BME280;41275;51.912;4.388;2023-05-16T12:05:53;102288.00;;;21.72;31.11
21547;BME280;41275;51.912;4.388;2023-05-16T12:11:16;102310.16;;;21.94;30.52
21547;BME280;41275;51.912;4.388;2023-05-16T12:16:38;102305.25;;;21.81;31.06
21547;BME280;41275;51.912;4.388;2023-05-16T12:22:02;102301.03;;;22.62;30.06
21547;BME280;41275;51.912;4.388;2023-05-16T12:27:24;102290.28;;;23.47;28.45
21547;BME280;41275;51.912;4.388;2023-05-16T12:32:51;102299.47;;;24.93;27.25
21547;BME280;41275;51.912;4.388;2023-05-16T12:38:13;102285.41;;;25.58;25.69
21547;BME280;41275;51.912;4.388;2023-05-16T12:43:35;102291.22;;;26.73;25.04
21547;BME280;41275;51.912;4.388;2023-05-16T12:49:02;102301.59;;;27.40;23.63
21547;BME280;41275;51.912;4.388;2023-05-16T12:54:26;102294.34;;;26.94;23.57
21547;BME280;41275;51.912;4.388;2023-05-16T12:59:47;102313.56;;;27.39;23.17
21547;BME280;41275;51.912;4.388;2023-05-16T13:05:09;102304.16;;;26.62;23.59
21547;BME280;41275;51.912;4.388;2023-05-16T13:10:30;102298.56;;;26.86;23.56
21547;BME280;41275;51.912;4.388;2023-05-16T13:15:51;102305.91;;;27.00;23.36
21547;BME280;41275;51.912;4.388;2023-05-16T13:21:12;102309.53;;;27.09;23.18
21547;BME280;41275;51.912;4.388;2023-05-16T13:26:34;102304.22;;;27.31;23.59
21547;BME280;41275;51.912;4.388;2023-05-16T13:31:55;102311.25;;;27.82;22.76
21547;BME280;41275;51.912;4.388;2023-05-16T13:37:17;102315.41;;;27.80;23.01
21547;BME280;41275;51.912;4.388;2023-05-16T13:42:38;102311.25;;;27.82;22.88
21547;BME280;41275;51.912;4.388;2023-05-16T13:47:59;102306.03;;;28.08;22.96
21547;BME280;41275;51.912;4.388;2023-05-16T13:53:21;102300.94;;;27.57;22.57
21547;BME280;41275;51.912;4.388;2023-05-16T13:58:43;102315.88;;;28.18;22.10
21547;BME280;41275;51.912;4.388;2023-05-16T14:04:04;102316.88;;;27.86;22.28
21547;BME280;41275;51.912;4.388;2023-05-16T14:09:25;102313.63;;;28.20;22.40
21547;BME280;41275;51.912;4.388;2023-05-16T14:14:46;102309.34;;;28.05;22.02
21547;BME280;41275;51.912;4.388;2023-05-16T14:20:08;102304.84;;;27.64;23.12
21547;BME280;41275;51.912;4.388;2023-05-16T14:25:30;102304.53;;;27.80;22.01
21547;BME280;41275;51.912;4.388;2023-05-16T14:30:51;102311.16;;;28.55;21.29
21547;BME280;41275;51.912;4.388;2023-05-16T14:36:13;102300.13;;;29.00;20.45
21547;BME280;41275;51.912;4.388;2023-05-16T14:41:34;102299.44;;;28.85;20.33
21547;BME280;41275;51.912;4.388;2023-05-16T14:46:56;102304.00;;;29.07;20.67
21547;BME280;41275;51.912;4.388;2023-05-16T14:52:17;102313.06;;;28.85;21.82
21547;BME280;41275;51.912;4.388;2023-05-16T14:57:38;102303.91;;;28.81;22.33
21547;BME280;41275;51.912;4.388;2023-05-16T15:02:59;102303.50;;;28.97;22.39
21547;BME280;41275;51.912;4.388;2023-05-16T15:08:20;102319.88;;;29.80;21.85
21547;BME280;41275;51.912;4.388;2023-05-16T15:13:42;102318.91;;;29.76;22.56
21547;BME280;41275;51.912;4.388;2023-05-16T15:19:03;102326.44;;;29.79;22.43
21547;BME280;41275;51.912;4.388;2023-05-16T15:24:24;102340.03;;;26.27;26.48
21547;BME280;41275;51.912;4.388;2023-05-16T15:29:45;102323.88;;;25.17;28.83
21547;BME280;41275;51.912;4.388;2023-05-16T15:35:07;102336.50;;;24.44;29.75
21547;BME280;41275;51.912;4.388;2023-05-16T15:40:28;102332.34;;;25.96;28.72
21547;BME280;41275;51.912;4.388;2023-05-16T15:45:49;102335.28;;;24.21;30.94
21547;BME280;41275;51.912;4.388;2023-05-16T15:51:11;102348.97;;;23.31;32.14
21547;BME280;41275;51.912;4.388;2023-05-16T15:56:36;102360.94;;;22.53;33.73
21547;BME280;41275;51.912;4.388;2023-05-16T16:01:57;102353.38;;;24.26;32.29
21547;BME280;41275;51.912;4.388;2023-05-16T16:07:18;102347.28;;;26.50;29.08
21547;BME280;41275;51.912;4.388;2023-05-16T16:12:39;102359.97;;;26.55;27.95
21547;BME280;41275;51.912;4.388;2023-05-16T16:18:00;102364.91;;;24.42;30.30
21547;BME280;41275;51.912;4.388;2023-05-16T16:23:22;102356.13;;;23.71;31.65
21547;BME280;41275;51.912;4.388;2023-05-16T16:28:43;102354.72;;;24.23;31.70
21547;BME280;41275;51.912;4.388;2023-05-16T16:34:05;102369.50;;;23.32;32.19
21547;BME280;41275;51.912;4.388;2023-05-16T16:39:26;102354.16;;;22.15;34.46
21547;BME280;41275;51.912;4.388;2023-05-16T16:44:47;102364.38;;;23.31;32.67
21547;BME280;41275;51.912;4.388;2023-05-16T16:50:09;102365.69;;;24.47;31.57
21547;BME280;41275;51.912;4.388;2023-05-16T16:55:30;102370.84;;;25.98;29.43
21547;BME280;41275;51.912;4.388;2023-05-16T17:00:52;102371.34;;;23.42;31.75
21547;BME280;41275;51.912;4.388;2023-05-16T17:06:13;102373.31;;;24.74;31.54
21547;BME280;41275;51.912;4.388;2023-05-16T17:11:34;102365.25;;;24.30;31.43
21547;BME280;41275;51.912;4.388;2023-05-16T17:16:57;102368.31;;;25.40;30.44
21547;BME280;41275;51.912;4.388;2023-05-16T17:22:21;102372.44;;;25.80;29.66
21547;BME280;41275;51.912;4.388;2023-05-16T17:27:42;102387.06;;;24.44;30.58
21547;BME280;41275;51.912;4.388;2023-05-16T17:33:04;102385.47;;;22.37;33.11
21547;BME280;41275;51.912;4.388;2023-05-16T17:38:26;102390.50;;;22.02;33.94
21547;BME280;41275;51.912;4.388;2023-05-16T17:43:47;102398.97;;;21.69;35.17
21547;BME280;41275;51.912;4.388;2023-05-16T17:49:08;102402.09;;;21.45;35.32
21547;BME280;41275;51.912;4.388;2023-05-16T17:54:30;102408.41;;;21.24;35.69
21547;BME280;41275;51.912;4.388;2023-05-16T17:59:52;102406.25;;;21.26;36.24
21547;BME280;41275;51.912;4.388;2023-05-16T18:05:15;102407.06;;;22.52;34.77
21547;BME280;41275;51.912;4.388;2023-05-16T18:10:37;102401.69;;;22.57;33.94
21547;BME280;41275;51.912;4.388;2023-05-16T18:15:58;102409.69;;;21.16;35.07
21547;BME280;41275;51.912;4.388;2023-05-16T18:21:19;102415.69;;;20.32;36.53
21547;BME280;41275;51.912;4.388;2023-05-16T18:26:41;102430.56;;;20.40;36.92
21547;BME280;41275;51.912;4.388;2023-05-16T18:32:04;102420.19;;;21.13;36.10
21547;BME280;41275;51.912;4.388;2023-05-16T18:37:25;102433.03;;;20.46;36.76
21547;BME280;41275;51.912;4.388;2023-05-16T18:42:46;102427.69;;;19.80;37.92
21547;BME280;41275;51.912;4.388;2023-05-16T18:48:07;102436.38;;;19.49;38.76
21547;BME280;41275;51.912;4.388;2023-05-16T18:53:29;102446.69;;;19.57;38.92
21547;BME280;41275;51.912;4.388;2023-05-16T18:58:50;102444.59;;;19.59;38.90
21547;BME280;41275;51.912;4.388;2023-05-16T19:04:12;102437.22;;;19.16;39.48
21547;BME280;41275;51.912;4.388;2023-05-16T19:09:33;102452.09;;;18.89;40.06
21547;BME280;41275;51.912;4.388;2023-05-16T19:14:54;102461.75;;;18.62;40.15
21547;BME280;41275;51.912;4.388;2023-05-16T19:20:15;102468.88;;;18.39;41.08
21547;BME280;41275;51.912;4.388;2023-05-16T19:25:36;102459.09;;;18.33;41.16
21547;BME280;41275;51.912;4.388;2023-05-16T19:30:58;102465.75;;;18.19;41.60
21547;BME280;41275;51.912;4.388;2023-05-16T19:36:19;102464.06;;;18.01;41.89
21547;BME280;41275;51.912;4.388;2023-05-16T19:41:41;102458.72;;;17.89;42.63
21547;BME280;41275;51.912;4.388;2023-05-16T19:47:02;102474.34;;;17.81;42.90
21547;BME280;41275;51.912;4.388;2023-05-16T19:52:23;102489.09;;;17.72;42.85
21547;BME280;41275;51.912;4.388;2023-05-16T19:57:45;102486.19;;;17.61;43.11
21547;BME280;41275;51.912;4.388;2023-05-16T20:03:07;102486.75;;;17.52;43.35
21547;BME280;41275;51.912;4.388;2023-05-16T20:08:28;102490.75;;;17.49;43.93
21547;BME280;41275;51.912;4.388;2023-05-16T20:13:49;102496.44;;;17.41;44.37
21547;BME280;41275;51.912;4.388;2023-05-16T20:19:10;102498.03;;;17.30;44.63
21547;BME280;41275;51.912;4.388;2023-05-16T20:24:33;102504.53;;;17.23;44.83
21547;BME280;41275;51.912;4.388;2023-05-16T20:29:54;102495.81;;;17.15;45.49
21547;BME280;41275;51.912;4.388;2023-05-16T20:35:16;102501.03;;;17.10;45.38
21547;BME280;41275;51.912;4.388;2023-05-16T20:40:38;102514.25;;;17.05;45.83
21547;BME280;41275;51.912;4.388;2023-05-16T20:45:59;102505.91;;;17.02;46.26
21547;BME280;41275;51.912;4.388;2023-05-16T20:51:20;102516.44;;;16.97;46.32
21547;BME280;41275;51.912;4.388;2023-05-16T20:56:42;102516.56;;;16.90;46.56
21547;BME280;41275;51.912;4.388;2023-05-16T21:02:03;102512.91;;;16.84;46.87
21547;BME280;41275;51.912;4.388;2023-05-16T21:07:26;102506.63;;;16.79;47.35
21547;BME280;41275;51.912;4.388;2023-05-16T21:12:47;102521.38;;;16.81;47.49
21547;BME280;41275;51.912;4.388;2023-05-16T21:18:08;102522.34;;;16.87;47.47
21547;BME280;41275;51.912;4.388;2023-05-16T21:23:29;102527.09;;;16.85;47.61
21547;BME280;41275;51.912;4.388;2023-05-16T21:28:51;102522.34;;;16.68;47.83
21547;BME280;41275;51.912;4.388;2023-05-16T21:34:12;102519.75;;;16.62;48.17
21547;BME280;41275;51.912;4.388;2023-05-16T21:39:33;102531.38;;;16.56;48.17
21547;BME280;41275;51.912;4.388;2023-05-16T21:44:55;102532.84;;;16.52;48.32
21547;BME280;41275;51.912;4.388;2023-05-16T21:50:16;102532.72;;;16.47;48.77
21547;BME280;41275;51.912;4.388;2023-05-16T21:55:38;102535.22;;;16.41;49.00
21547;BME280;41275;51.912;4.388;2023-05-16T22:00:59;102538.34;;;16.38;48.83
21547;BME280;41275;51.912;4.388;2023-05-16T22:06:20;102542.72;;;16.33;48.87
21547;BME280;41275;51.912;4.388;2023-05-16T22:11:41;102541.09;;;16.32;49.14
21547;BME280;41275;51.912;4.388;2023-05-16T22:17:03;102546.44;;;16.32;49.60
21547;BME280;41275;51.912;4.388;2023-05-16T22:22:24;102549.31;;;16.30;49.55
21547;BME280;41275;51.912;4.388;2023-05-16T22:27:45;102533.97;;;16.26;49.39
21547;BME280;41275;51.912;4.388;2023-05-16T22:33:06;102533.75;;;16.27;49.83
21547;BME280;41275;51.912;4.388;2023-05-16T22:38:27;102537.91;;;16.23;49.76
21547;BME280;41275;51.912;4.388;2023-05-16T22:43:49;102537.31;;;16.21;50.29
21547;BME280;41275;51.912;4.388;2023-05-16T22:49:10;102539.97;;;16.21;50.12
21547;BME280;41275;51.912;4.388;2023-05-16T22:54:31;102559.09;;;16.18;50.54
21547;BME280;41275;51.912;4.388;2023-05-16T22:59:52;102556.44;;;16.18;50.50
21547;BME280;41275;51.912;4.388;2023-05-16T23:05:13;102555.06;;;16.15;50.36
21547;BME280;41275;51.912;4.388;2023-05-16T23:10:35;102560.22;;;16.10;50.53
21547;BME280;41275;51.912;4.388;2023-05-16T23:15:56;102547.09;;;16.09;51.05
21547;BME280;41275;51.912;4.388;2023-05-16T23:21:18;102562.31;;;16.08;51.02
21547;BME280;41275;51.912;4.388;2023-05-16T23:26:42;102561.25;;;16.09;51.18
21547;BME280;41275;51.912;4.388;2023-05-16T23:32:03;102563.13;;;16.09;51.35
21547;BME280;41275;51.912;4.388;2023-05-16T23:37:24;102555.34;;;16.07;51.31
21547;BME280;41275;51.912;4.388;2023-05-16T23:42:45;102553.69;;;16.06;51.61
21547;BME280;41275;51.912;4.388;2023-05-16T23:48:07;102555.59;;;15.99;51.46
21547;BME280;41275;51.912;4.388;2023-05-16T23:53:28;102549.91;;;15.95;51.64
21547;BME280;41275;51.912;4.388;2023-05-16T23:58:51;102549.00;;;16.02;51.79
